WetterOnline ( https://www.wetteronline.de )

Wetter aktuell Dinkelsbühl

Aktuelles Wetter: Feuchtwangen-Heilbronn (475m)

6-stündlich | Neueste Meldungen
Ortszeit Temperatur Wetter
Di, 28.01. 1:00 4.6° C bewölkt
Mo, 27.01. 19:00 4.9° C Sprühregen
Mo, 27.01. 13:00 7.2° C bewölkt
Mo, 27.01. 7:00 1.0° C bedeckt
Mo, 27.01. 1:00 -1.3° C Nebel
So, 26.01. 19:00 1.2° C fast wolkenlos
So, 26.01. 13:00 4.9° C bedeckt
So, 26.01. 7:00 -1.0° C wolkig
Ortszeit Temperatur Wetter
Di, 28.01. 1:30 4.6° C leichter Regen
Di, 28.01. 1:20 4.6° C leichter Regen
Di, 28.01. 1:10 4.7° C Sprühregen
Di, 28.01. 1:00 4.6° C bewölkt
Di, 28.01. 0:40 4.6° C bewölkt
Di, 28.01. 0:30 4.3° C bedeckt
Di, 28.01. 0:00 4.7° C Sprühregen
Mo, 27.01. 23:30 5.1° C leichter Regen
Mo, 27.01. 23:00 5.1° C leichter Regen
Mo, 27.01. 22:30 5.3° C leichter Regen
Ortszeit Relative Feuchte Sichtweite
Di, 28.01. 1:00 91% 35 km
Mo, 27.01. 19:00 93% 21 km
Mo, 27.01. 13:00 72% 35 km
Mo, 27.01. 7:00 99% 8 km
Mo, 27.01. 1:00 100% 100 m
So, 26.01. 19:00 96% 6 km
So, 26.01. 13:00 84% 13 km
So, 26.01. 7:00 100% 3.3 km
Ortszeit Relative Feuchte Sichtweite
Di, 28.01. 1:30 91% 26 km
Di, 28.01. 1:20 91% -
Di, 28.01. 1:10 90% -
Di, 28.01. 1:00 91% 35 km
Di, 28.01. 0:40 91% -
Di, 28.01. 0:30 95% 35 km
Di, 28.01. 0:00 91% 30 km
Mo, 27.01. 23:30 87% 25 km
Mo, 27.01. 23:00 87% 22 km
Mo, 27.01. 22:30 83% 26 km
Ortszeit Niederschlagsmenge Niederschlagsart
Di, 28.01. 1:00 0.4 l/m2 in 6 Std. Regen
Mo, 27.01. 19:00 0.3 l/m2 in 12 Std. Regen
Mo, 27.01. 13:00 0.1 l/m2 in 6 Std. Regen
Mo, 27.01. 7:00 0.1 l/m2 in 12 Std. Sprühregen
Mo, 27.01. 1:00 0.0 l/m2 in 6 Std. -
So, 26.01. 19:00 0.0 l/m2 in 12 Std. -
So, 26.01. 13:00 0.0 l/m2 in 6 Std. -
So, 26.01. 7:00 0.0 l/m2 in 12 Std. -
Ortszeit Niederschlagsmenge Niederschlagsart
Di, 28.01. 1:30 0.1 l/m2 in 1 Std. -
Di, 28.01. 1:20 keine Meldung -
Di, 28.01. 1:10 keine Meldung -
Di, 28.01. 1:00 0.1 l/m2 in 1 Std. Regen
Di, 28.01. 0:40 keine Meldung -
Di, 28.01. 0:30 0.1 l/m2 in 1 Std. Schneeregen
Di, 28.01. 0:00 0.2 l/m2 in 1 Std. Regen
Mo, 27.01. 23:30 0.1 l/m2 in 1 Std. -
Mo, 27.01. 23:00 0.2 l/m2 in 1 Std. Regen
Mo, 27.01. 22:30 0.1 l/m2 in 1 Std. -
Ortszeit Stärke Spitze Richtung
km/h Bft. km/h Grad Sektor
Di, 28.01. 1:00 14 3 36 200° S
Mo, 27.01. 19:00 13 3 31 180° S
Mo, 27.01. 13:00 15 3 22 200° S
Mo, 27.01. 7:00 7 2 11 180° S
Mo, 27.01. 1:00 0 0 7 - -
So, 26.01. 19:00 2 1 7 140° SO
So, 26.01. 13:00 6 1 9 190° S
So, 26.01. 7:00 0 0 7 - -
Ortszeit Stärke Spitze Richtung
km/h Bft. km/h Grad Sektor
Di, 28.01. 1:30 14 3 25 200° S
Di, 28.01. 1:20 14 3 - 200° S
Di, 28.01. 1:10 17 3 - 200° S
Di, 28.01. 1:00 14 3 25 200° S
Di, 28.01. 0:40 17 3 - 190° S
Di, 28.01. 0:30 11 2 25 190° S
Di, 28.01. 0:00 18 3 36 220° SW
Mo, 27.01. 23:30 22 4 36 230° SW
Mo, 27.01. 23:00 20 4 31 220° SW
Mo, 27.01. 22:30 18 3 29 210° SW
Ortszeit Untergrenze Bedeckung Gattung
total tief tief mittel hoch
Di, 28.01. 1:00 780 m 8/8 7/8 - - -
Mo, 27.01. 19:00 840 m 8/8 8/8 - - -
Mo, 27.01. 13:00 1800 m 7/8 7/8 - - -
Mo, 27.01. 7:00 1080 m 8/8 8/8 - - -
Mo, 27.01. 1:00 2100 m 0/8 0/8 - - -
So, 26.01. 19:00 7500 m 2/8 0/8 - - -
So, 26.01. 13:00 3000 m 8/8 8/8 - - -
So, 26.01. 7:00 2700 m 8/8 2/8 - - -
Ortszeit Bedeckungsgrad in Achtel und Wolkenuntergrenze
Di, 28.01. 1:30 6(720m) 7(840m) 7(1500m)
Di, 28.01. 1:20 6(720m) 7(840m) 7(1500m)
Di, 28.01. 1:10 5(750m) 8(1500m) 8(2400m)
Di, 28.01. 1:00 4(780m) 7(1350m) 8(3600m)
Di, 28.01. 0:40 6(780m) 7(1260m) 8(3300m)
Di, 28.01. 0:30 5(750m) 8(1800m) 8(3300m)
Di, 28.01. 0:00 7(690m) 8(1170m)
Mo, 27.01. 23:30 6(720m) 7(900m)
Mo, 27.01. 23:00 7(720m) 7(900m)
Mo, 27.01. 22:30 7(810m) 7(1200m)
Ortszeit Luftdruck NN (hPa) Tendenz (hPa in 3 Std.)
Di, 28.01. 1:00 1005 - 2,5
Mo, 27.01. 19:00 1010 - 1,5
Mo, 27.01. 13:00 1014 - 2,2
Mo, 27.01. 7:00 1018 - 0,6
Mo, 27.01. 1:00 1020 - 0,5
So, 26.01. 19:00 1020 0,0
So, 26.01. 13:00 1020 - 0,7
So, 26.01. 7:00 1021 - 0,3
Ortszeit Luftdruck NN (hPa) Tendenz (hPa in 3 Std.)
Di, 28.01. 1:30 1005 - 2,7
Di, 28.01. 1:20 1005 keine Meldung
Di, 28.01. 1:10 1005 keine Meldung
Di, 28.01. 1:00 1005 - 2,5
Di, 28.01. 0:40 1005 keine Meldung
Di, 28.01. 0:30 1006 - 2,0
Di, 28.01. 0:00 1006 - 2,1
Mo, 27.01. 23:30 1007 - 2,2
Mo, 27.01. 23:00 1007 - 2,0
Mo, 27.01. 22:30 1007 - 2,3
Ortszeit Schneehöhe (cm)
Di, 28.01. 1:00 0
Mo, 27.01. 19:00 0
Mo, 27.01. 13:00 0
Mo, 27.01. 7:00 0
Mo, 27.01. 1:00 0
So, 26.01. 19:00 0
So, 26.01. 13:00 0
So, 26.01. 7:00 0
Ortszeit Schneehöhe (cm)
Di, 28.01. 1:30 0
Di, 28.01. 1:20 0
Di, 28.01. 1:10 0
Di, 28.01. 1:00 0
Di, 28.01. 0:40 0
Di, 28.01. 0:30 0
Di, 28.01. 0:00 0
Mo, 27.01. 23:30 0
Mo, 27.01. 23:00 0
Mo, 27.01. 22:30 0
Link zu dieser Seite / Seite empfehlen

Das Wetter in ...